Twijzel, Netherlands
Current Conditions -  °F | °C
As of 7:12 AM on Friday 31 Oct 2014 (Local Time) from EHLW Reporting Station
Moderate Fog Moderate Fog  
Wind Chill: 50°   Ceiling: 100
Heat Index: 50°   Visibility: 0.31mi
Dew Point: 50°   Wind: 8mph
Humidity: 100%   Direction: 170°S
Pressure: 30.12"   Gusts: NA
Location:  53.23°N, 6.09°E
Report Text: EHLW 310612Z AUTO 17007KT 0500 R23/1800 FG BKN000 BKN001 OVC007 10/10 Q1020 RED
Loading
Personal Weather Stations






























Interactive Weather Map
Tropical Storm Tracking
New forecast layout! Learn more

10-Day Weather Forecast

Advertisements
Track Severe Weather on mobile